Time,TemperatureF,DewpointF,PressureIn,WindDirection,WindDirectionDegrees,WindSpeedMPH,WindSpeedGustMPH,Humidity,HourlyPrecipIn,Conditions,Clouds,dailyrainin,SoftwareType,DateUTC
2013-01-24 00:11:00,24.3,9.0,30.19,ENE,63,3.0,8.0,53,0.00,,,0.00,weatherlink.com 1.10,2013-01-24 05:11:00,
2013-01-24 00:26:00,23.6,10.0,30.18,SSW,204,3.0,6.0,57,0.00,,,0.00,weatherlink.com 1.10,2013-01-24 05:26:00,
2013-01-24 00:41:00,22.9,12.0,30.17,NE,41,4.0,8.0,64,0.00,,,0.00,weatherlink.com 1.10,2013-01-24 05:41:00,
2013-01-24 00:56:00,22.3,16.0,30.17,East,99,7.0,10.0,77,0.00,,,0.00,weatherlink.com 1.10,2013-01-24 05:56:00,
2013-01-24 01:11:00,21.3,17.0,30.17,ESE,111,7.0,9.0,83,0.00,,,0.00,weatherlink.com 1.10,2013-01-24 06:11:00,
2013-01-24 01:26:00,20.7,17.0,30.16,ESE,105,10.0,13.0,85,0.00,,,0.00,weatherlink.com 1.10,2013-01-24 06:26:00,
2013-01-24 01:41:00,20.2,17.0,30.16,East,101,10.0,12.0,86,0.00,,,0.00,weatherlink.com 1.10,2013-01-24 06:41:00,
2013-01-24 01:56:00,20.2,17.0,30.15,ESE,105,12.0,15.0,87,0.00,,,0.00,weatherlink.com 1.10,2013-01-24 06:56:00,
2013-01-24 02:11:00,20.0,17.0,30.15,East,86,13.0,15.0,87,0.00,,,0.00,weatherlink.com 1.10,2013-01-24 07:11:00,
2013-01-24 02:26:00,20.1,17.0,30.15,ESE,110,14.0,14.0,88,0.00,,,0.00,weatherlink.com 1.10,2013-01-24 07:26:00,
2013-01-24 02:41:00,20.0,17.0,30.15,East,89,10.0,18.0,87,0.00,,,0.00,weatherlink.com 1.10,2013-01-24 07:41:00,
2013-01-24 02:57:00,20.2,18.0,30.14,East,86,13.0,16.0,89,0.00,,,0.00,weatherlink.com 1.10,2013-01-24 07:57:00,
2013-01-24 03:11:00,19.8,17.0,30.14,ENE,75,15.0,17.0,88,0.00,,,0.00,weatherlink.com 1.10,2013-01-24 08:11:00,
2013-01-24 03:27:00,19.6,16.0,30.14,East,82,11.0,14.0,87,0.00,,,0.00,weatherlink.com 1.10,2013-01-24 08:27:00,
2013-01-24 03:42:00,19.6,16.0,30.14,East,83,9.0,12.0,86,0.00,,,0.00,weatherlink.com 1.10,2013-01-24 08:42:00,
2013-01-24 03:56:00,20.0,17.0,30.14,ENE,76,12.0,15.0,87,0.00,,,0.00,weatherlink.com 1.10,2013-01-24 08:56:00,
2013-01-24 04:11:00,19.7,16.0,30.14,East,79,11.0,14.0,85,0.00,,,0.00,weatherlink.com 1.10,2013-01-24 09:11:00,
2013-01-24 04:26:00,19.9,16.0,30.14,NE,41,6.0,12.0,86,0.00,,,0.00,weatherlink.com 1.10,2013-01-24 09:26:00,
2013-01-24 04:42:00,20.0,16.0,30.14,NE,56,10.0,13.0,85,0.00,,,0.00,weatherlink.com 1.10,2013-01-24 09:42:00,
2013-01-24 04:57:00,20.1,17.0,30.15,ENE,65,10.0,14.0,87,0.00,,,0.00,weatherlink.com 1.10,2013-01-24 09:57:00,
2013-01-24 05:11:00,20.1,17.0,30.16,ENE,70,16.0,16.0,88,0.00,,,0.00,weatherlink.com 1.10,2013-01-24 10:11:00,
2013-01-24 05:27:00,19.7,17.0,30.16,ENE,57,14.0,17.0,87,0.00,,,0.00,weatherlink.com 1.10,2013-01-24 10:27:00,
2013-01-24 05:42:00,19.3,16.0,30.17,ENE,68,10.0,16.0,88,0.00,,,0.00,weatherlink.com 1.10,2013-01-24 10:42:00,
2013-01-24 05:57:00,19.0,16.0,30.19,ENE,57,14.0,17.0,86,0.00,,,0.00,weatherlink.com 1.10,2013-01-24 10:57:00,
2013-01-24 06:12:00,19.3,16.0,30.19,ENE,59,12.0,15.0,86,0.00,,,0.00,weatherlink.com 1.10,2013-01-24 11:12:00,
2013-01-24 06:27:00,19.3,16.0,30.20,NE,53,12.0,15.0,86,0.00,,,0.00,weatherlink.com 1.10,2013-01-24 11:27:00,
2013-01-24 06:42:00,18.8,16.0,30.21,NNE,30,7.0,15.0,88,0.00,,,0.00,weatherlink.com 1.10,2013-01-24 11:42:00,
2013-01-24 06:57:00,18.5,15.0,30.22,NE,49,10.0,14.0,86,0.00,,,0.00,weatherlink.com 1.10,2013-01-24 11:57:00,
2013-01-24 07:12:00,18.5,15.0,30.24,NNE,27,9.0,14.0,87,0.00,,,0.00,weatherlink.com 1.10,2013-01-24 12:12:00,
2013-01-24 07:27:00,17.7,14.0,30.25,NNE,18,11.0,14.0,84,0.00,,,0.00,weatherlink.com 1.10,2013-01-24 12:27:00,
2013-01-24 07:42:00,17.9,13.0,30.25,NE,39,9.0,13.0,81,0.00,,,0.00,weatherlink.com 1.10,2013-01-24 12:42:00,
2013-01-24 07:57:00,17.7,12.0,30.26,NE,34,12.0,16.0,78,0.00,,,0.00,weatherlink.com 1.10,2013-01-24 12:57:00,
2013-01-24 08:12:00,17.8,12.0,30.27,NE,40,10.0,14.0,77,0.00,,,0.00,weatherlink.com 1.10,2013-01-24 13:12:00,
2013-01-24 08:27:00,17.9,12.0,30.29,NE,39,13.0,16.0,76,0.00,,,0.00,weatherlink.com 1.10,2013-01-24 13:27:00,
2013-01-24 08:42:00,18.1,13.0,30.30,North,6,4.0,11.0,79,0.00,,,0.00,weatherlink.com 1.10,2013-01-24 13:42:00,
2013-01-24 08:57:00,18.2,12.0,30.31,NNE,21,8.0,13.0,77,0.00,,,0.00,weatherlink.com 1.10,2013-01-24 13:57:00,
2013-01-24 09:12:00,18.3,12.0,30.32,NNW,333,9.0,16.0,75,0.00,,,0.00,weatherlink.com 1.10,2013-01-24 14:12:00,
2013-01-24 09:28:00,18.5,12.0,30.33,NNE,30,9.0,16.0,75,0.00,,,0.00,weatherlink.com 1.10,2013-01-24 14:28:00,
2013-01-24 09:42:00,18.9,12.0,30.34,NNE,15,16.0,18.0,73,0.00,,,0.00,weatherlink.com 1.10,2013-01-24 14:42:00,
2013-01-24 09:57:00,19.1,11.0,30.34,NNE,20,14.0,15.0,70,0.00,,,0.00,weatherlink.com 1.10,2013-01-24 14:57:00,
2013-01-24 10:13:00,19.6,11.0,30.35,NNE,18,12.0,18.0,69,0.00,,,0.00,weatherlink.com 1.10,2013-01-24 15:13:00,
2013-01-24 10:27:00,20.1,11.0,30.35,NNE,18,13.0,16.0,67,0.00,,,0.00,weatherlink.com 1.10,2013-01-24 15:27:00,
2013-01-24 10:43:00,20.5,10.0,30.35,NNE,15,12.0,15.0,63,0.00,,,0.00,weatherlink.com 1.10,2013-01-24 15:43:00,
2013-01-24 10:58:00,21.0,11.0,30.36,North,11,15.0,17.0,64,0.00,,,0.00,weatherlink.com 1.10,2013-01-24 15:58:00,
2013-01-24 11:13:00,21.7,11.0,30.36,NW,306,11.0,16.0,63,0.00,,,0.00,weatherlink.com 1.10,2013-01-24 16:13:00,
2013-01-24 11:28:00,22.1,10.0,30.36,North,8,17.0,20.0,60,0.00,,,0.00,weatherlink.com 1.10,2013-01-24 16:28:00,
2013-01-24 11:43:00,22.5,11.0,30.36,NNE,12,13.0,18.0,61,0.00,,,0.00,weatherlink.com 1.10,2013-01-24 16:43:00,
2013-01-24 11:58:00,22.8,10.0,30.37,NNE,14,17.0,21.0,57,0.00,,,0.00,weatherlink.com 1.10,2013-01-24 16:58:00,
2013-01-24 12:13:00,23.3,9.0,30.37,NNE,25,13.0,18.0,55,0.00,,,0.00,weatherlink.com 1.10,2013-01-24 17:13:00,
2013-01-24 12:28:00,23.5,9.0,30.37,NNE,23,9.0,18.0,55,0.00,,,0.00,weatherlink.com 1.10,2013-01-24 17:28:00,
2013-01-24 12:43:00,23.8,8.0,30.37,NNE,18,16.0,22.0,52,0.00,,,0.00,weatherlink.com 1.10,2013-01-24 17:43:00,
2013-01-24 12:58:00,24.0,9.0,30.38,NNE,25,18.0,26.0,53,0.00,,,0.00,weatherlink.com 1.10,2013-01-24 17:58:00,
2013-01-24 13:13:00,24.2,10.0,30.38,NNE,12,13.0,26.0,54,0.00,,,0.00,weatherlink.com 1.10,2013-01-24 18:13:00,
2013-01-24 13:28:00,24.3,8.0,30.38,North,9,19.0,24.0,51,0.00,,,0.00,weatherlink.com 1.10,2013-01-24 18:28:00,
2013-01-24 13:43:00,25.0,9.0,30.38,North,352,15.0,26.0,50,0.00,,,0.00,weatherlink.com 1.10,2013-01-24 18:43:00,
2013-01-24 13:58:00,25.6,9.0,30.38,NNE,25,16.0,20.0,50,0.00,,,0.00,weatherlink.com 1.10,2013-01-24 18:58:00,
2013-01-24 14:13:00,25.2,8.0,30.39,NE,34,18.0,29.0,48,0.00,,,0.00,weatherlink.com 1.10,2013-01-24 19:13:00,
2013-01-24 14:28:00,25.3,6.0,30.39,NNW,345,16.0,24.0,43,0.00,,,0.00,weatherlink.com 1.10,2013-01-24 19:28:00,
2013-01-24 14:43:00,25.5,5.0,30.40,NW,314,18.0,23.0,42,0.00,,,0.00,weatherlink.com 1.10,2013-01-24 19:43:00,
2013-01-24 14:59:00,25.9,4.0,30.41,NNE,26,16.0,25.0,39,0.00,,,0.00,weatherlink.com 1.10,2013-01-24 19:59:00,
2013-01-24 15:14:00,26.2,4.0,30.41,North,1,13.0,21.0,39,0.00,,,0.00,weatherlink.com 1.10,2013-01-24 20:14:00,
2013-01-24 15:29:00,26.5,3.0,30.43,NNE,12,14.0,17.0,37,0.00,,,0.00,weatherlink.com 1.10,2013-01-24 20:29:00,
2013-01-24 15:44:00,26.6,3.0,30.43,NNE,16,9.0,16.0,37,0.00,,,0.00,weatherlink.com 1.10,2013-01-24 20:44:00,
2013-01-24 15:58:00,26.6,3.0,30.44,NNW,330,10.0,22.0,36,0.00,,,0.00,weatherlink.com 1.10,2013-01-24 20:58:00,
2013-01-24 16:13:00,26.8,4.0,30.45,NNW,330,16.0,21.0,37,0.00,,,0.00,weatherlink.com 1.10,2013-01-24 21:13:00,
2013-01-24 16:28:00,26.7,3.0,30.45,North,9,16.0,19.0,36,0.00,,,0.00,weatherlink.com 1.10,2013-01-24 21:28:00,
2013-01-24 16:44:00,26.3,3.0,30.46,NNE,14,8.0,18.0,36,0.00,,,0.00,weatherlink.com 1.10,2013-01-24 21:44:00,
2013-01-24 16:58:00,25.8,3.0,30.47,NNE,19,11.0,20.0,37,0.00,,,0.00,weatherlink.com 1.10,2013-01-24 21:58:00,
2013-01-24 17:14:00,25.6,2.0,30.47,North,11,8.0,17.0,36,0.00,,,0.00,weatherlink.com 1.10,2013-01-24 22:14:00,
2013-01-24 17:30:00,25.2,4.0,30.48,NW,316,5.0,9.0,40,0.00,,,0.00,weatherlink.com 1.10,2013-01-24 22:30:00,
2013-01-24 17:44:00,25.0,3.0,30.49,NW,311,5.0,11.0,38,0.00,,,0.00,weatherlink.com 1.10,2013-01-24 22:44:00,
2013-01-24 17:59:00,24.4,3.0,30.49,WNW,295,3.0,7.0,39,0.00,,,0.00,weatherlink.com 1.10,2013-01-24 22:59:00,
2013-01-24 18:14:00,24.1,4.0,30.50,NW,314,4.0,6.0,42,0.00,,,0.00,weatherlink.com 1.10,2013-01-24 23:14:00,
2013-01-24 18:29:00,23.7,3.0,30.51,WNW,290,1.0,5.0,41,0.00,,,0.00,weatherlink.com 1.10,2013-01-24 23:29:00,
2013-01-24 18:44:00,23.7,4.0,30.52,NW,319,4.0,7.0,42,0.00,,,0.00,weatherlink.com 1.10,2013-01-24 23:44:00,
2013-01-24 18:59:00,23.9,5.0,30.51,NW,321,3.0,9.0,44,0.00,,,0.00,weatherlink.com 1.10,2013-01-24 23:59:00,
2013-01-24 19:14:00,23.9,5.0,30.52,NW,321,5.0,9.0,45,0.00,,,0.00,weatherlink.com 1.10,2013-01-25 00:14:00,
2013-01-24 19:29:00,23.6,3.0,30.53,WNW,298,5.0,9.0,42,0.00,,,0.00,weatherlink.com 1.10,2013-01-25 00:29:00,
2013-01-24 19:44:00,23.4,5.0,30.53,NW,310,4.0,8.0,45,0.00,,,0.00,weatherlink.com 1.10,2013-01-25 00:44:00,
2013-01-24 19:59:00,23.3,4.0,30.54,NW,311,6.0,11.0,44,0.00,,,0.00,weatherlink.com 1.10,2013-01-25 00:59:00,
2013-01-24 20:14:00,22.9,5.0,30.54,NW,323,4.0,7.0,46,0.00,,,0.00,weatherlink.com 1.10,2013-01-25 01:14:00,
2013-01-24 20:29:00,22.7,5.0,30.53,NNW,332,3.0,6.0,46,0.00,,,0.00,weatherlink.com 1.10,2013-01-25 01:29:00,
2013-01-24 20:44:00,22.4,4.0,30.54,WNW,298,1.0,5.0,45,0.00,,,0.00,weatherlink.com 1.10,2013-01-25 01:44:00,
2013-01-24 20:59:00,22.1,4.0,30.54,NW,304,2.0,5.0,45,0.00,,,0.00,weatherlink.com 1.10,2013-01-25 01:59:00,
2013-01-24 21:14:00,21.7,5.0,30.54,NW,319,2.0,4.0,48,0.00,,,0.00,weatherlink.com 1.10,2013-01-25 02:14:00,
2013-01-24 21:29:00,21.1,3.0,30.54,WNW,285,1.0,2.0,46,0.00,,,0.00,weatherlink.com 1.10,2013-01-25 02:29:00,
2013-01-24 21:44:00,20.9,4.0,30.54,WNW,284,1.0,3.0,48,0.00,,,0.00,weatherlink.com 1.10,2013-01-25 02:44:00,
2013-01-24 21:59:00,20.5,5.0,30.54,WNW,302,2.0,3.0,51,0.00,,,0.00,weatherlink.com 1.10,2013-01-25 02:59:00,
2013-01-24 22:14:00,20.1,3.0,30.54,WNW,298,2.0,3.0,48,0.00,,,0.00,weatherlink.com 1.10,2013-01-25 03:14:00,
2013-01-24 22:29:00,19.7,4.0,30.55,WNW,293,3.0,4.0,50,0.00,,,0.00,weatherlink.com 1.10,2013-01-25 03:29:00,
2013-01-24 22:44:00,19.7,5.0,30.54,WNW,302,4.0,4.0,52,0.00,,,0.00,weatherlink.com 1.10,2013-01-25 03:44:00,
2013-01-24 22:59:00,20.0,4.0,30.55,NW,304,4.0,6.0,51,0.00,,,0.00,weatherlink.com 1.10,2013-01-25 03:59:00,
2013-01-24 23:14:00,20.2,4.0,30.55,WNW,302,2.0,5.0,49,0.00,,,0.00,weatherlink.com 1.10,2013-01-25 04:14:00,
2013-01-24 23:29:00,20.2,4.0,30.55,NW,308,4.0,6.0,49,0.00,,,0.00,weatherlink.com 1.10,2013-01-25 04:29:00,
2013-01-24 23:44:00,19.9,3.0,30.54,WNW,302,2.0,5.0,48,0.00,,,0.00,weatherlink.com 1.10,2013-01-25 04:44:00,
2013-01-24 23:59:00,19.7,5.0,30.55,WNW,285,1.0,5.0,52,0.00,,,0.00,weatherlink.com 1.10,2013-01-25 04:59:00,